createdAt,value
2022-11-29T00:02:24.360Z,-3.32
2022-11-29T00:04:52.471Z,-3.50
2022-11-29T00:07:21.942Z,-3.40
2022-11-29T00:09:49.938Z,-3.39
2022-11-29T00:12:18.459Z,-3.38
2022-11-29T00:14:46.775Z,-3.35
2022-11-29T00:17:14.955Z,-3.40
2022-11-29T00:19:45.231Z,-3.40
2022-11-29T00:22:13.221Z,-3.41
2022-11-29T00:24:43.390Z,-3.36
2022-11-29T00:27:11.656Z,-3.42
2022-11-29T00:29:39.606Z,-3.40
2022-11-29T00:32:07.803Z,-3.50
2022-11-29T00:34:35.806Z,-3.53
2022-11-29T00:37:03.711Z,-3.56
2022-11-29T00:39:31.783Z,-3.56
2022-11-29T00:42:01.190Z,-3.46
2022-11-29T00:44:29.194Z,-3.44
2022-11-29T00:46:57.123Z,-3.32
2022-11-29T00:49:25.198Z,-3.34
2022-11-29T00:51:53.243Z,-3.49
2022-11-29T00:54:21.280Z,-3.46
2022-11-29T00:56:49.245Z,-3.44
2022-11-29T00:59:18.712Z,-3.52
2022-11-29T01:01:46.847Z,-3.54
2022-11-29T01:04:14.957Z,-3.44
2022-11-29T01:06:42.885Z,-3.47
2022-11-29T01:09:10.869Z,-3.41
2022-11-29T01:11:38.972Z,-3.53
2022-11-29T01:14:07.033Z,-3.52
2022-11-29T01:16:36.608Z,-3.47
2022-11-29T01:19:04.804Z,-3.50
2022-11-29T01:21:32.836Z,-3.58
2022-11-29T01:24:01.485Z,-3.63
2022-11-29T01:26:30.802Z,-3.75
2022-11-29T01:28:59.320Z,-3.76
2022-11-29T01:31:28.357Z,-3.80
2022-11-29T01:33:58.800Z,-3.90
2022-11-29T01:36:27.328Z,-3.83
2022-11-29T01:38:55.470Z,-3.84
2022-11-29T01:41:25.153Z,-3.80
2022-11-29T01:43:57.370Z,-4.00
2022-11-29T01:46:25.466Z,-4.01
2022-11-29T01:48:55.108Z,-3.88
2022-11-29T01:51:24.841Z,-3.94
2022-11-29T01:53:53.001Z,-4.05
2022-11-29T01:56:21.891Z,-3.93
2022-11-29T01:58:49.894Z,-3.96
2022-11-29T02:01:17.944Z,-3.88
2022-11-29T02:03:46.034Z,-3.87
2022-11-29T02:06:14.483Z,-3.87
2022-11-29T02:08:44.193Z,-3.86
2022-11-29T02:11:29.969Z,-3.78
2022-11-29T02:14:04.125Z,-3.77
2022-11-29T02:16:36.126Z,-3.90
2022-11-29T02:21:59.391Z,-3.88
2022-11-29T02:24:53.959Z,-3.84
2022-11-29T02:27:51.997Z,-3.89
2022-11-29T02:30:23.408Z,-3.94
2022-11-29T02:33:09.783Z,-3.99
2022-11-29T02:35:45.964Z,-3.94
2022-11-29T02:38:22.925Z,-3.94
2022-11-29T02:41:00.108Z,-4.10
2022-11-29T02:43:43.576Z,-3.96
2022-11-29T02:46:19.063Z,-4.01
2022-11-29T02:48:54.198Z,-3.91
2022-11-29T02:51:27.325Z,-3.85
2022-11-29T02:53:59.509Z,-3.91
2022-11-29T02:56:30.654Z,-3.87
2022-11-29T02:59:02.561Z,-3.81
2022-11-29T03:01:34.334Z,-3.88
2022-11-29T03:04:06.952Z,-3.75
2022-11-29T03:06:40.667Z,-3.78
2022-11-29T03:09:13.251Z,-3.75
2022-11-29T03:11:46.700Z,-3.77
2022-11-29T03:14:17.389Z,-3.89
2022-11-29T03:16:48.605Z,-4.03
2022-11-29T03:19:29.874Z,-4.06
2022-11-29T03:22:03.466Z,-4.02
2022-11-29T03:24:34.621Z,-3.96
2022-11-29T03:27:05.288Z,-4.00
2022-11-29T03:29:36.548Z,-3.96
2022-11-29T03:32:08.668Z,-3.92
2022-11-29T03:34:47.061Z,-3.92
2022-11-29T03:37:18.465Z,-4.07
2022-11-29T03:39:50.829Z,-4.10
2022-11-29T03:42:22.343Z,-4.11
2022-11-29T03:44:53.958Z,-4.12
2022-11-29T03:47:25.513Z,-4.07
2022-11-29T03:49:55.766Z,-4.11
2022-11-29T03:52:28.367Z,-4.10
2022-11-29T03:55:01.922Z,-4.12
2022-11-29T03:57:33.102Z,-4.19
2022-11-29T04:00:05.218Z,-4.18
2022-11-29T04:02:58.544Z,-4.25
2022-11-29T04:05:47.646Z,-4.16
2022-11-29T04:08:34.043Z,-4.11
2022-11-29T04:11:13.891Z,-4.23
2022-11-29T04:13:58.026Z,-4.44
2022-11-29T04:16:54.602Z,-4.38
2022-11-29T04:19:51.158Z,-4.40
2022-11-29T04:22:29.088Z,-4.47
2022-11-29T04:25:16.752Z,-4.50
2022-11-29T04:27:52.085Z,-4.43
2022-11-29T04:30:24.346Z,-4.51
2022-11-29T04:33:04.659Z,-4.45
2022-11-29T04:35:38.006Z,-4.42
2022-11-29T04:38:24.453Z,-4.39
2022-11-29T04:40:57.822Z,-4.44
2022-11-29T04:43:39.709Z,-4.38
2022-11-29T04:46:22.718Z,-4.32
2022-11-29T04:49:00.613Z,-4.41
2022-11-29T04:51:38.150Z,-4.25
2022-11-29T04:54:10.629Z,-4.22
2022-11-29T04:56:41.933Z,-4.30
2022-11-29T04:59:15.021Z,-4.24
2022-11-29T05:02:07.950Z,-4.26
2022-11-29T05:04:41.987Z,-4.33
2022-11-29T05:07:15.062Z,-4.35
2022-11-29T05:09:56.882Z,-4.38
2022-11-29T05:12:30.303Z,-4.38
2022-11-29T05:15:16.032Z,-4.48
2022-11-29T05:17:51.908Z,-4.60
2022-11-29T05:20:25.552Z,-4.43
2022-11-29T05:22:59.795Z,-4.50
2022-11-29T05:25:38.738Z,-4.56
2022-11-29T05:28:10.973Z,-4.51
2022-11-29T05:30:55.646Z,-4.50
2022-11-29T05:33:30.453Z,-4.45
2022-11-29T05:36:06.450Z,-4.52
2022-11-29T05:38:45.117Z,-4.57
2022-11-29T05:41:31.695Z,-4.49
2022-11-29T05:44:05.043Z,-4.52
2022-11-29T05:46:37.364Z,-4.50
2022-11-29T05:49:11.804Z,-4.49
2022-11-29T05:51:43.448Z,-4.54
2022-11-29T05:54:16.370Z,-4.56
2022-11-29T05:56:49.116Z,-4.57
2022-11-29T05:59:20.037Z,-4.54
2022-11-29T06:01:53.721Z,-4.65
2022-11-29T06:04:23.483Z,-4.69
2022-11-29T06:06:56.659Z,-4.74
2022-11-29T06:09:28.158Z,-4.73
2022-11-29T06:11:57.993Z,-4.69
2022-11-29T06:14:40.380Z,-4.64
2022-11-29T06:17:26.651Z,-4.72
2022-11-29T06:20:04.321Z,-4.57
2022-11-29T06:22:41.205Z,-4.47
2022-11-29T06:25:18.022Z,-4.45
2022-11-29T06:27:54.957Z,-4.50
2022-11-29T06:30:25.245Z,-4.38
2022-11-29T06:33:01.257Z,-4.49
2022-11-29T06:35:35.038Z,-4.52
2022-11-29T06:38:05.811Z,-4.47
2022-11-29T06:40:36.840Z,-4.39
2022-11-29T06:43:05.134Z,-4.40
2022-11-29T06:45:33.515Z,-4.42
2022-11-29T06:48:03.796Z,-4.45
2022-11-29T06:50:35.743Z,-4.40
2022-11-29T06:53:09.128Z,-4.25
2022-11-29T06:55:44.065Z,-4.16
2022-11-29T06:58:18.158Z,-4.14
2022-11-29T07:00:51.443Z,-4.10
2022-11-29T07:03:26.226Z,-4.16
2022-11-29T07:05:54.545Z,-4.21
2022-11-29T07:08:23.851Z,-4.12
2022-11-29T07:10:54.345Z,-4.03
2022-11-29T07:13:23.431Z,-3.99
2022-11-29T07:15:56.369Z,-4.13
2022-11-29T07:18:29.515Z,-4.00
2022-11-29T07:21:03.992Z,-3.99
2022-11-29T07:23:36.169Z,-4.06
2022-11-29T07:26:10.525Z,-4.05
2022-11-29T07:28:43.513Z,-4.04
2022-11-29T07:31:16.312Z,-4.02
2022-11-29T07:33:52.623Z,-4.02
2022-11-29T07:36:27.674Z,-4.10
2022-11-29T07:39:01.975Z,-4.10
2022-11-29T07:41:35.823Z,-4.18
2022-11-29T07:44:07.889Z,-4.17
2022-11-29T07:46:35.930Z,-4.09
2022-11-29T07:49:05.422Z,-4.03
2022-11-29T07:51:33.495Z,-4.10
2022-11-29T07:54:01.546Z,-4.05
2022-11-29T07:56:30.052Z,-4.03
2022-11-29T07:58:58.098Z,-4.01
2022-11-29T08:01:26.286Z,-3.94
2022-11-29T08:03:54.325Z,-4.00
2022-11-29T08:06:26.777Z,-4.00
2022-11-29T08:08:54.725Z,-3.86
2022-11-29T08:11:22.857Z,-3.72
2022-11-29T08:13:50.991Z,-3.76
2022-11-29T08:16:19.635Z,-3.89
2022-11-29T08:18:47.945Z,-3.70
2022-11-29T08:21:18.329Z,-3.78
2022-11-29T08:23:47.987Z,-3.94
2022-11-29T08:26:16.510Z,-3.71
2022-11-29T08:28:44.929Z,-3.71
2022-11-29T08:31:14.156Z,-3.66
2022-11-29T08:33:43.305Z,-3.54
2022-11-29T08:36:12.538Z,-3.50
2022-11-29T08:38:40.591Z,-3.46
2022-11-29T08:41:11.296Z,-3.60
2022-11-29T08:43:39.610Z,-3.41
2022-11-29T08:46:08.004Z,-3.38
2022-11-29T08:48:37.342Z,-3.49
2022-11-29T08:51:06.290Z,-3.49
2022-11-29T08:53:42.608Z,-3.45
2022-11-29T08:56:59.564Z,-3.50
2022-11-29T08:59:01.505Z,-3.54
2022-11-29T09:01:30.361Z,-3.50
2022-11-29T09:04:02.974Z,-3.44
2022-11-29T09:06:33.496Z,-3.32
2022-11-29T09:09:01.762Z,-3.17
2022-11-29T09:11:32.451Z,-3.09
2022-11-29T09:14:01.588Z,-3.07
2022-11-29T09:16:31.193Z,-3.03
2022-11-29T09:19:00.326Z,-2.98
2022-11-29T09:21:29.287Z,-3.10
2022-11-29T09:23:59.813Z,-2.93
2022-11-29T09:26:29.387Z,-2.82
2022-11-29T09:29:01.345Z,-2.69
2022-11-29T09:31:30.402Z,-2.54
2022-11-29T09:33:58.776Z,-2.46
2022-11-29T09:39:15.448Z,-2.52
2022-11-29T09:41:55.739Z,-2.53
2022-11-29T09:44:29.002Z,-2.65
2022-11-29T09:47:02.930Z,-2.72
2022-11-29T09:49:40.665Z,-2.75
2022-11-29T09:52:15.680Z,-2.94
2022-11-29T09:54:49.385Z,-2.92
2022-11-29T09:57:19.410Z,-2.82
2022-11-29T09:59:50.929Z,-2.85
2022-11-29T10:02:24.905Z,-2.84
2022-11-29T10:04:55.292Z,-2.87
2022-11-29T10:07:27.446Z,-2.74
2022-11-29T10:09:58.308Z,-2.78
2022-11-29T10:12:31.654Z,-2.82
2022-11-29T10:15:04.323Z,-2.84
2022-11-29T10:17:38.667Z,-2.93
2022-11-29T10:20:12.375Z,-2.99
2022-11-29T10:22:44.505Z,-2.92
2022-11-29T10:25:18.364Z,-3.01
2022-11-29T10:27:46.529Z,-2.98
2022-11-29T10:30:17.456Z,-2.92
2022-11-29T10:32:46.891Z,-2.86
2022-11-29T10:35:15.763Z,-2.88
2022-11-29T10:38:01.427Z,-2.82
2022-11-29T10:40:34.621Z,-2.89
2022-11-29T10:43:03.043Z,-2.96
2022-11-29T10:45:34.104Z,-3.05
2022-11-29T10:48:04.861Z,-3.19
2022-11-29T10:50:35.072Z,-3.19
2022-11-29T10:53:06.174Z,-3.08
2022-11-29T10:55:38.070Z,-3.09
2022-11-29T10:58:17.153Z,-3.15
2022-11-29T11:00:52.914Z,-3.20
2022-11-29T11:03:29.695Z,-3.07
2022-11-29T11:05:59.044Z,-3.10
2022-11-29T11:08:27.495Z,-3.09
2022-11-29T11:11:01.722Z,-3.00
2022-11-29T11:13:31.922Z,-2.88
2022-11-29T11:16:09.345Z,-2.85
2022-11-29T11:18:38.512Z,-2.94
2022-11-29T11:21:09.403Z,-2.92
2022-11-29T11:23:42.789Z,-2.97
2022-11-29T11:26:12.681Z,-3.10
2022-11-29T11:28:43.911Z,-3.00
2022-11-29T11:31:14.192Z,-2.94
2022-11-29T11:33:42.925Z,-2.93
2022-11-29T11:36:13.358Z,-2.91
2022-11-29T11:38:42.726Z,-2.87
2022-11-29T11:41:45.474Z,-2.88
2022-11-29T11:44:48.009Z,-2.94
2022-11-29T11:47:19.424Z,-2.97
2022-11-29T11:49:49.329Z,-3.07
2022-11-29T11:52:20.414Z,-3.15
2022-11-29T11:54:52.413Z,-3.26
2022-11-29T11:57:21.958Z,-3.39
2022-11-29T11:59:50.433Z,-3.69
2022-11-29T12:02:27.340Z,-3.61
2022-11-29T12:04:56.246Z,-3.61
2022-11-29T12:07:59.359Z,-3.71
2022-11-29T12:10:19.286Z,-3.79
2022-11-29T12:12:48.648Z,-3.93
2022-11-29T12:15:19.938Z,-3.89
2022-11-29T12:17:50.868Z,-3.92
2022-11-29T12:20:21.754Z,-4.14
2022-11-29T12:22:57.889Z,-4.17
2022-11-29T12:25:28.308Z,-4.30
2022-11-29T12:27:56.374Z,-4.41
2022-11-29T12:30:24.736Z,-4.56
2022-11-29T12:32:59.031Z,-4.67
2022-11-29T12:35:37.352Z,-4.80
2022-11-29T12:38:13.355Z,-4.82
2022-11-29T12:40:45.674Z,-4.83
2022-11-29T12:43:20.635Z,-4.90
2022-11-29T12:45:51.656Z,-5.02
2022-11-29T12:48:27.893Z,-5.09
2022-11-29T12:51:03.022Z,-5.19
2022-11-29T12:53:43.796Z,-5.23
2022-11-29T12:56:16.332Z,-5.33
2022-11-29T12:58:55.037Z,-5.42
2022-11-29T13:01:26.403Z,-5.48
2022-11-29T13:03:59.182Z,-5.57
2022-11-29T13:06:30.607Z,-5.63
2022-11-29T13:09:14.864Z,-5.74
2022-11-29T13:11:46.312Z,-5.84
2022-11-29T13:14:42.096Z,-5.97
2022-11-29T13:17:07.155Z,-6.10
2022-11-29T13:19:40.339Z,-6.14
2022-11-29T13:22:14.152Z,-6.20
2022-11-29T13:24:44.919Z,-6.26
2022-11-29T13:27:16.928Z,-6.33
2022-11-29T13:29:45.029Z,-6.39
2022-11-29T13:32:18.469Z,-6.44
2022-11-29T13:34:50.180Z,-6.50
2022-11-29T13:37:21.961Z,-6.56
2022-11-29T13:39:55.669Z,-6.63
2022-11-29T13:42:27.861Z,-6.69
2022-11-29T13:45:01.078Z,-6.76
2022-11-29T13:47:29.182Z,-6.79
2022-11-29T13:50:00.165Z,-6.85
2022-11-29T13:52:41.895Z,-6.90
2022-11-29T13:55:29.159Z,-6.97
2022-11-29T13:58:16.849Z,-6.97
2022-11-29T14:00:50.365Z,-7.02
2022-11-29T14:03:28.494Z,-7.03
2022-11-29T14:06:05.073Z,-7.13
2022-11-29T14:09:02.075Z,-7.21
2022-11-29T14:11:24.350Z,-7.17
2022-11-29T14:13:55.009Z,-7.17
2022-11-29T14:16:29.248Z,-7.20
2022-11-29T14:19:15.904Z,-7.22
2022-11-29T14:22:02.403Z,-7.28
2022-11-29T14:24:42.387Z,-7.24
2022-11-29T14:27:25.169Z,-7.25
2022-11-29T14:29:54.276Z,-7.27
2022-11-29T14:32:23.821Z,-7.37
2022-11-29T14:34:55.387Z,-7.37
2022-11-29T14:37:41.500Z,-7.43
2022-11-29T14:40:24.056Z,-7.42
2022-11-29T14:42:52.944Z,-7.47
2022-11-29T14:45:28.650Z,-7.48
2022-11-29T14:47:57.215Z,-7.49
2022-11-29T14:50:33.202Z,-7.55
2022-11-29T14:53:01.330Z,-7.63
2022-11-29T14:55:32.542Z,-7.59
2022-11-29T14:58:15.391Z,-7.61
2022-11-29T15:00:54.145Z,-7.64
2022-11-29T15:03:25.830Z,-7.63
2022-11-29T15:05:58.886Z,-7.72
2022-11-29T15:08:32.340Z,-7.72
2022-11-29T15:11:03.591Z,-7.74
2022-11-29T15:13:32.414Z,-7.75
2022-11-29T15:16:15.044Z,-7.78
2022-11-29T15:18:55.293Z,-7.74
2022-11-29T15:21:30.121Z,-7.80
2022-11-29T15:24:00.598Z,-7.78
2022-11-29T15:26:31.234Z,-7.79
2022-11-29T15:29:13.687Z,-7.83
2022-11-29T15:31:42.956Z,-7.84
2022-11-29T15:34:19.661Z,-7.92
2022-11-29T15:36:47.814Z,-7.87
2022-11-29T15:39:25.982Z,-7.86
2022-11-29T15:42:00.518Z,-7.90
2022-11-29T15:44:28.577Z,-7.92
2022-11-29T15:46:56.497Z,-8.00
2022-11-29T15:49:25.569Z,-8.06
2022-11-29T15:51:56.784Z,-8.03
2022-11-29T15:54:28.370Z,-8.03
2022-11-29T15:57:00.397Z,-8.07
2022-11-29T15:59:31.634Z,-8.10
2022-11-29T16:02:01.944Z,-8.10
2022-11-29T16:04:30.644Z,-8.09
2022-11-29T16:06:59.199Z,-8.14
2022-11-29T16:09:31.671Z,-8.09
2022-11-29T16:12:01.641Z,-8.09
2022-11-29T16:14:29.998Z,-8.14
2022-11-29T16:17:00.668Z,-8.14
2022-11-29T16:19:33.396Z,-8.16
2022-11-29T16:22:10.244Z,-8.21
2022-11-29T16:24:38.611Z,-8.30
2022-11-29T16:27:09.050Z,-8.29
2022-11-29T16:29:38.330Z,-8.34
2022-11-29T16:32:25.261Z,-8.34
2022-11-29T16:34:53.485Z,-8.39
2022-11-29T16:37:23.349Z,-8.48
2022-11-29T16:39:52.651Z,-8.49
2022-11-29T16:42:25.773Z,-8.54
2022-11-29T16:45:04.053Z,-8.47
2022-11-29T16:47:46.610Z,-8.50
2022-11-29T16:50:17.488Z,-8.51
2022-11-29T16:52:45.759Z,-8.56
2022-11-29T16:55:14.160Z,-8.57
2022-11-29T16:57:44.210Z,-8.59
2022-11-29T17:00:13.740Z,-8.60
2022-11-29T17:02:41.963Z,-8.62
2022-11-29T17:05:16.380Z,-8.65
2022-11-29T17:10:40.290Z,-8.66
2022-11-29T17:13:21.928Z,-8.64
2022-11-29T17:15:56.377Z,-8.67
2022-11-29T17:21:22.695Z,-8.70
2022-11-29T17:23:57.947Z,-8.70
2022-11-29T17:26:26.040Z,-8.71
2022-11-29T17:31:54.216Z,-8.73
2022-11-29T17:34:24.551Z,-8.67
2022-11-29T17:36:52.582Z,-8.72
2022-11-29T17:39:21.785Z,-8.69
2022-11-29T17:48:50.444Z,-8.70
2022-11-29T17:51:49.924Z,-8.70
2022-11-29T17:54:15.604Z,-8.67
2022-11-29T17:56:43.540Z,-8.66
2022-11-29T17:59:15.790Z,-8.70
2022-11-29T18:01:43.875Z,-8.67
2022-11-29T18:04:13.474Z,-8.68
2022-11-29T18:06:44.270Z,-8.63
2022-11-29T18:09:13.008Z,-8.63
2022-11-29T18:11:53.756Z,-8.61
2022-11-29T18:14:22.988Z,-8.63
2022-11-29T18:16:51.787Z,-8.58
2022-11-29T18:19:28.561Z,-8.56
2022-11-29T18:21:56.540Z,-8.56
2022-11-29T18:24:24.559Z,-8.53
2022-11-29T18:26:52.703Z,-8.53
2022-11-29T18:29:20.768Z,-8.51
2022-11-29T18:31:48.888Z,-8.56
2022-11-29T18:40:22.428Z,-8.59
2022-11-29T18:42:51.179Z,-8.60
2022-11-29T18:45:19.276Z,-8.61
2022-11-29T18:47:53.544Z,-8.58
2022-11-29T18:50:21.713Z,-8.63
2022-11-29T18:55:47.230Z,-8.59
2022-11-29T18:58:17.250Z,-8.55
2022-11-29T19:00:45.495Z,-8.55
2022-11-29T19:03:13.479Z,-8.52
2022-11-29T19:11:34.573Z,-8.59
2022-11-29T19:14:04.074Z,-8.60
2022-11-29T19:16:32.712Z,-8.57
2022-11-29T19:34:00.580Z,-8.66
2022-11-29T19:36:31.668Z,-8.63
2022-11-29T19:39:07.480Z,-8.59
2022-11-29T19:41:38.113Z,-8.63
2022-11-29T19:44:14.638Z,-8.59
2022-11-29T19:46:44.711Z,-8.58
2022-11-29T19:49:13.139Z,-8.56
2022-11-29T19:51:43.611Z,-8.53
2022-11-29T19:54:12.365Z,-8.55
2022-11-29T19:56:42.754Z,-8.56
2022-11-29T19:59:11.533Z,-8.54
2022-11-29T20:01:42.367Z,-8.55
2022-11-29T20:04:11.825Z,-8.54
2022-11-29T20:06:40.151Z,-8.51
2022-11-29T20:09:08.227Z,-8.49
2022-11-29T20:11:36.244Z,-8.46
2022-11-29T20:19:57.453Z,-8.44
2022-11-29T20:22:25.556Z,-8.43
2022-11-29T20:24:54.797Z,-8.40
2022-11-29T20:27:23.554Z,-8.37
2022-11-29T20:29:53.105Z,-8.39
2022-11-29T20:32:22.281Z,-8.36
2022-11-29T20:34:50.949Z,-8.37
2022-11-29T20:37:30.472Z,-8.30
2022-11-29T20:40:00.945Z,-8.31
2022-11-29T20:42:45.188Z,-8.34
2022-11-29T20:45:16.067Z,-8.30
2022-11-29T20:47:48.976Z,-8.30
2022-11-29T20:50:22.895Z,-8.27
2022-11-29T20:52:57.493Z,-8.27
2022-11-29T20:55:25.497Z,-8.22
2022-11-29T20:57:53.540Z,-8.19
2022-11-29T21:03:19.721Z,-8.23
2022-11-29T21:05:48.568Z,-8.22
2022-11-29T21:08:17.443Z,-8.21
2022-11-29T21:10:45.784Z,-8.16
2022-11-29T21:13:14.745Z,-8.18
2022-11-29T21:15:44.900Z,-8.19
2022-11-29T21:18:21.253Z,-8.20
2022-11-29T21:20:52.214Z,-8.20
2022-11-29T21:23:23.682Z,-8.20
2022-11-29T21:25:57.550Z,-8.20
2022-11-29T21:28:30.609Z,-8.19
2022-11-29T21:31:00.451Z,-8.20
2022-11-29T21:33:28.736Z,-8.22
2022-11-29T21:35:59.076Z,-8.16
2022-11-29T21:38:28.381Z,-8.17
2022-11-29T21:40:56.543Z,-8.22
2022-11-29T21:43:50.198Z,-8.19
2022-11-29T21:46:14.164Z,-8.19
2022-11-29T21:48:42.547Z,-8.22
2022-11-29T21:51:11.249Z,-8.18
2022-11-29T21:53:39.846Z,-8.17
2022-11-29T21:56:09.200Z,-8.15
2022-11-29T21:58:38.212Z,-8.17
2022-11-29T22:01:10.542Z,-8.15
2022-11-29T22:03:40.608Z,-8.19
2022-11-29T22:06:09.515Z,-8.22
2022-11-29T22:08:39.046Z,-8.27
2022-11-29T22:11:08.094Z,-8.27
2022-11-29T22:13:36.491Z,-8.28
2022-11-29T22:16:05.396Z,-8.30
2022-11-29T22:18:33.574Z,-8.33
2022-11-29T22:21:07.608Z,-8.33
2022-11-29T22:23:35.666Z,-8.36
2022-11-29T22:26:04.875Z,-8.37
2022-11-29T22:28:33.032Z,-8.40
2022-11-29T22:31:05.360Z,-8.37
2022-11-29T22:33:33.812Z,-8.38
2022-11-29T22:36:07.273Z,-8.41
2022-11-29T22:38:35.632Z,-8.42
2022-11-29T22:41:04.584Z,-8.48
2022-11-29T22:43:33.148Z,-8.46
2022-11-29T22:46:05.026Z,-8.48
2022-11-29T22:48:38.446Z,-8.51
2022-11-29T22:51:09.731Z,-8.53
2022-11-29T22:53:38.204Z,-8.54
2022-11-29T22:56:07.521Z,-8.57
2022-11-29T22:58:35.946Z,-8.61
2022-11-29T23:01:05.072Z,-8.60
2022-11-29T23:03:34.957Z,-8.59
2022-11-29T23:06:07.177Z,-8.62
2022-11-29T23:08:37.350Z,-8.61
2022-11-29T23:11:06.111Z,-8.61
2022-11-29T23:13:35.166Z,-8.63
2022-11-29T23:16:03.858Z,-8.61
2022-11-29T23:18:31.934Z,-8.66
2022-11-29T23:21:01.690Z,-8.62
2022-11-29T23:23:29.788Z,-8.62
2022-11-29T23:25:59.488Z,-8.60
2022-11-29T23:28:27.585Z,-8.61
2022-11-29T23:30:55.789Z,-8.57
2022-11-29T23:33:24.257Z,-8.57
2022-11-29T23:35:52.616Z,-8.57
2022-11-29T23:38:20.557Z,-8.53
2022-11-29T23:40:48.559Z,-8.51
2022-11-29T23:43:17.999Z,-8.49
2022-11-29T23:45:46.060Z,-8.51
2022-11-29T23:48:14.032Z,-8.51
2022-11-29T23:50:42.331Z,-8.48
2022-11-29T23:53:11.473Z,-8.47
2022-11-29T23:55:39.495Z,-8.50
2022-11-29T23:58:07.452Z,-8.52
